sensor_id;sensor_type;location;lat;lon;timestamp;temperature;humidity
41965;DHT22;50120;53.250;8.702;2022-12-05T00:00:53;4.30;99.90
41965;DHT22;50120;53.250;8.702;2022-12-05T00:03:20;4.40;99.90
41965;DHT22;50120;53.250;8.702;2022-12-05T00:05:46;4.40;99.90
41965;DHT22;50120;53.250;8.702;2022-12-05T00:08:11;4.40;99.90
41965;DHT22;50120;53.250;8.702;2022-12-05T00:10:38;4.40;99.90
41965;DHT22;50120;53.250;8.702;2022-12-05T00:13:04;4.40;99.90
41965;DHT22;50120;53.250;8.702;2022-12-05T00:15:30;4.40;99.90
41965;DHT22;50120;53.250;8.702;2022-12-05T00:17:55;4.40;99.90
41965;DHT22;50120;53.250;8.702;2022-12-05T00:20:21;4.40;99.90
41965;DHT22;50120;53.250;8.702;2022-12-05T00:22:47;4.40;99.90
41965;DHT22;50120;53.250;8.702;2022-12-05T00:25:12;4.40;99.90
41965;DHT22;50120;53.250;8.702;2022-12-05T00:27:38;4.40;99.90
41965;DHT22;50120;53.250;8.702;2022-12-05T00:30:05;4.40;99.90
41965;DHT22;50120;53.250;8.702;2022-12-05T00:32:31;4.40;99.90
41965;DHT22;50120;53.250;8.702;2022-12-05T00:34:57;4.40;99.90
41965;DHT22;50120;53.250;8.702;2022-12-05T00:37:23;4.40;99.90
41965;DHT22;50120;53.250;8.702;2022-12-05T00:39:49;4.50;99.90
41965;DHT22;50120;53.250;8.702;2022-12-05T00:42:15;4.40;99.90
41965;DHT22;50120;53.250;8.702;2022-12-05T00:44:41;4.40;99.90
41965;DHT22;50120;53.250;8.702;2022-12-05T00:47:06;4.40;99.90
41965;DHT22;50120;53.250;8.702;2022-12-05T00:49:32;4.40;99.90
41965;DHT22;50120;53.250;8.702;2022-12-05T00:51:58;4.50;99.90
41965;DHT22;50120;53.250;8.702;2022-12-05T00:54:23;4.40;99.90
41965;DHT22;50120;53.250;8.702;2022-12-05T00:56:49;4.40;99.90
41965;DHT22;50120;53.250;8.702;2022-12-05T00:59:18;4.40;99.90
41965;DHT22;50120;53.250;8.702;2022-12-05T01:01:45;4.40;99.90
41965;DHT22;50120;53.250;8.702;2022-12-05T01:04:14;4.40;99.90
41965;DHT22;50120;53.250;8.702;2022-12-05T01:06:40;4.40;99.90
41965;DHT22;50120;53.250;8.702;2022-12-05T01:09:07;4.40;99.90
41965;DHT22;50120;53.250;8.702;2022-12-05T01:11:35;4.40;99.90
41965;DHT22;50120;53.250;8.702;2022-12-05T01:14:01;4.50;99.90
41965;DHT22;50120;53.250;8.702;2022-12-05T01:16:32;4.30;99.90
41965;DHT22;50120;53.250;8.702;2022-12-05T01:19:00;4.40;99.90
41965;DHT22;50120;53.250;8.702;2022-12-05T01:21:26;4.40;99.90
41965;DHT22;50120;53.250;8.702;2022-12-05T01:23:52;4.40;99.90
41965;DHT22;50120;53.250;8.702;2022-12-05T01:26:20;4.40;99.90
41965;DHT22;50120;53.250;8.702;2022-12-05T01:28:46;4.40;99.90
41965;DHT22;50120;53.250;8.702;2022-12-05T01:31:25;4.40;99.90
41965;DHT22;50120;53.250;8.702;2022-12-05T01:33:53;4.40;99.90
41965;DHT22;50120;53.250;8.702;2022-12-05T01:36:19;4.40;99.90
41965;DHT22;50120;53.250;8.702;2022-12-05T01:38:45;4.40;99.90
41965;DHT22;50120;53.250;8.702;2022-12-05T01:41:13;4.40;99.90
41965;DHT22;50120;53.250;8.702;2022-12-05T01:44:06;4.40;99.90
41965;DHT22;50120;53.250;8.702;2022-12-05T01:46:34;4.40;99.90
41965;DHT22;50120;53.250;8.702;2022-12-05T01:51:36;4.40;99.90
41965;DHT22;50120;53.250;8.702;2022-12-05T01:54:04;4.40;99.90
41965;DHT22;50120;53.250;8.702;2022-12-05T01:56:31;4.40;99.90
41965;DHT22;50120;53.250;8.702;2022-12-05T01:58:58;4.40;99.90
41965;DHT22;50120;53.250;8.702;2022-12-05T02:01:24;4.40;99.90
41965;DHT22;50120;53.250;8.702;2022-12-05T02:03:53;4.40;99.90
41965;DHT22;50120;53.250;8.702;2022-12-05T02:06:21;4.40;99.90
41965;DHT22;50120;53.250;8.702;2022-12-05T02:08:48;4.30;99.90
41965;DHT22;50120;53.250;8.702;2022-12-05T02:11:15;4.30;99.90
41965;DHT22;50120;53.250;8.702;2022-12-05T02:13:58;4.40;99.90
41965;DHT22;50120;53.250;8.702;2022-12-05T02:19:46;4.30;99.90
41965;DHT22;50120;53.250;8.702;2022-12-05T02:22:53;4.40;99.90
41965;DHT22;50120;53.250;8.702;2022-12-05T02:31:11;4.40;99.90
41965;DHT22;50120;53.250;8.702;2022-12-05T02:33:46;4.40;99.90
41965;DHT22;50120;53.250;8.702;2022-12-05T02:36:29;4.40;99.90
41965;DHT22;50120;53.250;8.702;2022-12-05T02:42:14;4.40;99.90
41965;DHT22;50120;53.250;8.702;2022-12-05T02:44:51;4.40;99.90
41965;DHT22;50120;53.250;8.702;2022-12-05T02:47:22;4.40;99.90
41965;DHT22;50120;53.250;8.702;2022-12-05T02:49:50;4.40;99.90
41965;DHT22;50120;53.250;8.702;2022-12-05T02:52:17;4.40;99.90
41965;DHT22;50120;53.250;8.702;2022-12-05T02:54:46;4.40;99.90
41965;DHT22;50120;53.250;8.702;2022-12-05T02:57:13;4.40;99.90
41965;DHT22;50120;53.250;8.702;2022-12-05T02:59:40;4.50;99.90
41965;DHT22;50120;53.250;8.702;2022-12-05T03:02:08;4.40;99.90
41965;DHT22;50120;53.250;8.702;2022-12-05T03:04:34;4.40;99.90
41965;DHT22;50120;53.250;8.702;2022-12-05T03:07:05;4.40;99.90
41965;DHT22;50120;53.250;8.702;2022-12-05T03:09:46;4.40;99.90
41965;DHT22;50120;53.250;8.702;2022-12-05T03:12:15;4.40;99.90
41965;DHT22;50120;53.250;8.702;2022-12-05T03:14:53;4.40;99.90
41965;DHT22;50120;53.250;8.702;2022-12-05T03:17:25;4.40;99.90
41965;DHT22;50120;53.250;8.702;2022-12-05T03:20:12;4.40;99.90
41965;DHT22;50120;53.250;8.702;2022-12-05T03:22:50;4.40;99.90
41965;DHT22;50120;53.250;8.702;2022-12-05T03:25:20;4.40;99.90
41965;DHT22;50120;53.250;8.702;2022-12-05T03:27:52;4.40;99.90
41965;DHT22;50120;53.250;8.702;2022-12-05T03:30:25;4.40;99.90
41965;DHT22;50120;53.250;8.702;2022-12-05T03:32:58;4.40;99.90
41965;DHT22;50120;53.250;8.702;2022-12-05T03:35:48;4.40;99.90
41965;DHT22;50120;53.250;8.702;2022-12-05T03:38:23;4.40;99.90
41965;DHT22;50120;53.250;8.702;2022-12-05T03:41:08;4.40;99.90
41965;DHT22;50120;53.250;8.702;2022-12-05T03:44:10;4.40;99.90
41965;DHT22;50120;53.250;8.702;2022-12-05T03:46:42;4.40;99.90
41965;DHT22;50120;53.250;8.702;2022-12-05T03:52:02;4.40;99.90
41965;DHT22;50120;53.250;8.702;2022-12-05T03:54:34;4.40;99.90
41965;DHT22;50120;53.250;8.702;2022-12-05T03:57:07;4.40;99.90
41965;DHT22;50120;53.250;8.702;2022-12-05T03:59:52;4.40;99.90
41965;DHT22;50120;53.250;8.702;2022-12-05T04:05:04;4.50;99.90
41965;DHT22;50120;53.250;8.702;2022-12-05T04:07:33;4.50;99.90
41965;DHT22;50120;53.250;8.702;2022-12-05T04:10:04;4.50;99.90
41965;DHT22;50120;53.250;8.702;2022-12-05T04:12:32;4.50;99.90
41965;DHT22;50120;53.250;8.702;2022-12-05T04:15:03;4.50;99.90
41965;DHT22;50120;53.250;8.702;2022-12-05T04:20:21;4.40;99.90
41965;DHT22;50120;53.250;8.702;2022-12-05T04:23:07;4.50;99.90
41965;DHT22;50120;53.250;8.702;2022-12-05T04:26:27;4.50;99.90
41965;DHT22;50120;53.250;8.702;2022-12-05T04:28:33;4.50;99.90
41965;DHT22;50120;53.250;8.702;2022-12-05T04:36:33;4.50;99.90
41965;DHT22;50120;53.250;8.702;2022-12-05T04:39:06;4.50;99.90
41965;DHT22;50120;53.250;8.702;2022-12-05T04:41:48;4.50;99.90
41965;DHT22;50120;53.250;8.702;2022-12-05T04:44:19;4.50;99.90
41965;DHT22;50120;53.250;8.702;2022-12-05T04:46:46;4.50;99.90
41965;DHT22;50120;53.250;8.702;2022-12-05T04:49:18;4.60;99.90
41965;DHT22;50120;53.250;8.702;2022-12-05T04:51:46;4.60;99.90
41965;DHT22;50120;53.250;8.702;2022-12-05T04:54:26;4.60;99.90
41965;DHT22;50120;53.250;8.702;2022-12-05T04:56:58;4.60;99.90
41965;DHT22;50120;53.250;8.702;2022-12-05T04:59:26;4.60;99.90
41965;DHT22;50120;53.250;8.702;2022-12-05T05:01:57;4.60;99.90
41965;DHT22;50120;53.250;8.702;2022-12-05T05:04:34;4.60;99.90
41965;DHT22;50120;53.250;8.702;2022-12-05T05:07:12;4.60;99.90
41965;DHT22;50120;53.250;8.702;2022-12-05T05:09:38;4.60;99.90
41965;DHT22;50120;53.250;8.702;2022-12-05T05:12:05;4.60;99.90
41965;DHT22;50120;53.250;8.702;2022-12-05T05:14:31;4.70;99.90
41965;DHT22;50120;53.250;8.702;2022-12-05T05:16:57;4.70;99.90
41965;DHT22;50120;53.250;8.702;2022-12-05T05:19:23;4.70;99.90
41965;DHT22;50120;53.250;8.702;2022-12-05T05:21:50;4.70;99.90
41965;DHT22;50120;53.250;8.702;2022-12-05T05:24:16;4.70;99.90
41965;DHT22;50120;53.250;8.702;2022-12-05T05:26:44;4.70;99.90
41965;DHT22;50120;53.250;8.702;2022-12-05T05:29:11;4.70;99.90
41965;DHT22;50120;53.250;8.702;2022-12-05T05:31:38;4.70;99.90
41965;DHT22;50120;53.250;8.702;2022-12-05T05:34:05;4.70;99.90
41965;DHT22;50120;53.250;8.702;2022-12-05T05:36:31;4.70;99.90
41965;DHT22;50120;53.250;8.702;2022-12-05T05:38:59;4.70;99.90
41965;DHT22;50120;53.250;8.702;2022-12-05T05:41:30;4.80;99.90
41965;DHT22;50120;53.250;8.702;2022-12-05T05:43:57;4.80;99.90
41965;DHT22;50120;53.250;8.702;2022-12-05T05:46:25;4.80;99.90
41965;DHT22;50120;53.250;8.702;2022-12-05T05:48:51;4.80;99.90
41965;DHT22;50120;53.250;8.702;2022-12-05T05:51:17;4.80;99.90
41965;DHT22;50120;53.250;8.702;2022-12-05T05:53:44;4.80;99.90
41965;DHT22;50120;53.250;8.702;2022-12-05T05:56:13;4.80;99.90
41965;DHT22;50120;53.250;8.702;2022-12-05T05:58:39;4.80;99.90
41965;DHT22;50120;53.250;8.702;2022-12-05T06:03:32;4.80;99.90
41965;DHT22;50120;53.250;8.702;2022-12-05T06:05:59;4.80;99.90
41965;DHT22;50120;53.250;8.702;2022-12-05T06:08:29;4.80;99.90
41965;DHT22;50120;53.250;8.702;2022-12-05T06:10:55;4.80;99.90
41965;DHT22;50120;53.250;8.702;2022-12-05T06:13:21;4.80;99.90
41965;DHT22;50120;53.250;8.702;2022-12-05T06:15:47;4.90;99.90
41965;DHT22;50120;53.250;8.702;2022-12-05T06:18:12;4.80;99.90
41965;DHT22;50120;53.250;8.702;2022-12-05T06:20:38;4.90;99.90
41965;DHT22;50120;53.250;8.702;2022-12-05T06:23:04;4.90;99.90
41965;DHT22;50120;53.250;8.702;2022-12-05T06:25:29;4.90;99.90
41965;DHT22;50120;53.250;8.702;2022-12-05T06:27:55;4.90;99.90
41965;DHT22;50120;53.250;8.702;2022-12-05T06:30:21;4.90;99.90
41965;DHT22;50120;53.250;8.702;2022-12-05T06:32:46;4.90;99.90
41965;DHT22;50120;53.250;8.702;2022-12-05T06:35:12;4.90;99.90
41965;DHT22;50120;53.250;8.702;2022-12-05T06:37:44;4.90;99.90
41965;DHT22;50120;53.250;8.702;2022-12-05T06:40:11;4.90;99.90
41965;DHT22;50120;53.250;8.702;2022-12-05T06:42:37;4.90;99.90
41965;DHT22;50120;53.250;8.702;2022-12-05T06:45:04;4.90;99.90
41965;DHT22;50120;53.250;8.702;2022-12-05T06:47:30;5.00;99.90
41965;DHT22;50120;53.250;8.702;2022-12-05T06:49:56;4.90;99.90
41965;DHT22;50120;53.250;8.702;2022-12-05T06:52:21;5.00;99.90
41965;DHT22;50120;53.250;8.702;2022-12-05T06:54:47;5.00;99.90
41965;DHT22;50120;53.250;8.702;2022-12-05T06:57:13;5.00;99.90
41965;DHT22;50120;53.250;8.702;2022-12-05T06:59:39;4.90;99.90
41965;DHT22;50120;53.250;8.702;2022-12-05T07:02:05;5.00;99.90
41965;DHT22;50120;53.250;8.702;2022-12-05T07:04:34;5.00;99.90
41965;DHT22;50120;53.250;8.702;2022-12-05T07:07:00;5.00;99.90
41965;DHT22;50120;53.250;8.702;2022-12-05T07:09:29;5.00;99.90
41965;DHT22;50120;53.250;8.702;2022-12-05T07:12:14;5.10;99.90
41965;DHT22;50120;53.250;8.702;2022-12-05T07:14:41;5.10;99.90
41965;DHT22;50120;53.250;8.702;2022-12-05T07:17:07;5.10;99.90
41965;DHT22;50120;53.250;8.702;2022-12-05T07:19:32;5.10;99.90
41965;DHT22;50120;53.250;8.702;2022-12-05T07:21:58;5.10;99.90
41965;DHT22;50120;53.250;8.702;2022-12-05T07:24:24;5.10;99.90
41965;DHT22;50120;53.250;8.702;2022-12-05T07:26:50;5.10;99.90
41965;DHT22;50120;53.250;8.702;2022-12-05T07:29:15;5.10;99.90
41965;DHT22;50120;53.250;8.702;2022-12-05T07:31:41;5.10;99.90
41965;DHT22;50120;53.250;8.702;2022-12-05T07:34:07;5.20;99.90
41965;DHT22;50120;53.250;8.702;2022-12-05T07:36:33;5.20;99.90
41965;DHT22;50120;53.250;8.702;2022-12-05T07:38:59;5.20;99.90
41965;DHT22;50120;53.250;8.702;2022-12-05T07:41:27;5.20;99.90
41965;DHT22;50120;53.250;8.702;2022-12-05T07:43:55;5.20;99.90
41965;DHT22;50120;53.250;8.702;2022-12-05T07:46:22;5.20;99.90
41965;DHT22;50120;53.250;8.702;2022-12-05T07:48:48;5.20;99.90
41965;DHT22;50120;53.250;8.702;2022-12-05T07:51:15;5.20;99.90
41965;DHT22;50120;53.250;8.702;2022-12-05T07:53:41;5.30;99.90
41965;DHT22;50120;53.250;8.702;2022-12-05T07:56:10;5.20;99.90
41965;DHT22;50120;53.250;8.702;2022-12-05T07:58:36;5.20;99.90
41965;DHT22;50120;53.250;8.702;2022-12-05T08:01:13;5.20;99.90
41965;DHT22;50120;53.250;8.702;2022-12-05T08:03:40;5.20;99.90
41965;DHT22;50120;53.250;8.702;2022-12-05T08:06:09;5.20;99.90
41965;DHT22;50120;53.250;8.702;2022-12-05T08:08:35;5.20;99.90
41965;DHT22;50120;53.250;8.702;2022-12-05T08:11:08;5.20;99.90
41965;DHT22;50120;53.250;8.702;2022-12-05T08:13:35;5.20;99.90
41965;DHT22;50120;53.250;8.702;2022-12-05T08:16:06;5.20;99.90
41965;DHT22;50120;53.250;8.702;2022-12-05T08:18:32;5.20;99.90
41965;DHT22;50120;53.250;8.702;2022-12-05T08:21:08;5.20;99.90
41965;DHT22;50120;53.250;8.702;2022-12-05T08:23:36;5.30;99.90
41965;DHT22;50120;53.250;8.702;2022-12-05T08:26:03;5.30;99.90
41965;DHT22;50120;53.250;8.702;2022-12-05T08:28:30;5.20;99.90
41965;DHT22;50120;53.250;8.702;2022-12-05T08:31:01;5.20;99.90
41965;DHT22;50120;53.250;8.702;2022-12-05T08:33:26;5.20;99.90
41965;DHT22;50120;53.250;8.702;2022-12-05T08:35:52;5.20;99.90
41965;DHT22;50120;53.250;8.702;2022-12-05T08:38:18;5.30;99.90
41965;DHT22;50120;53.250;8.702;2022-12-05T08:40:43;5.20;99.90
41965;DHT22;50120;53.250;8.702;2022-12-05T08:43:12;5.20;99.90
41965;DHT22;50120;53.250;8.702;2022-12-05T08:45:38;5.30;99.90
41965;DHT22;50120;53.250;8.702;2022-12-05T08:48:04;5.30;99.90
41965;DHT22;50120;53.250;8.702;2022-12-05T08:50:30;5.30;99.90
41965;DHT22;50120;53.250;8.702;2022-12-05T08:52:55;5.30;99.90
41965;DHT22;50120;53.250;8.702;2022-12-05T08:55:21;5.30;99.90
41965;DHT22;50120;53.250;8.702;2022-12-05T08:57:47;5.30;99.90
41965;DHT22;50120;53.250;8.702;2022-12-05T09:00:13;5.30;99.90
41965;DHT22;50120;53.250;8.702;2022-12-05T09:02:39;5.30;99.90
41965;DHT22;50120;53.250;8.702;2022-12-05T09:05:05;5.20;99.90
41965;DHT22;50120;53.250;8.702;2022-12-05T09:07:31;5.30;99.90
41965;DHT22;50120;53.250;8.702;2022-12-05T09:09:56;5.20;99.90
41965;DHT22;50120;53.250;8.702;2022-12-05T09:12:22;5.20;99.90
41965;DHT22;50120;53.250;8.702;2022-12-05T09:14:48;5.20;99.90
41965;DHT22;50120;53.250;8.702;2022-12-05T09:17:13;5.20;99.90
41965;DHT22;50120;53.250;8.702;2022-12-05T09:19:39;5.20;99.90
41965;DHT22;50120;53.250;8.702;2022-12-05T09:22:05;5.10;99.90
41965;DHT22;50120;53.250;8.702;2022-12-05T09:24:30;5.10;99.90
41965;DHT22;50120;53.250;8.702;2022-12-05T09:26:56;5.10;99.90
41965;DHT22;50120;53.250;8.702;2022-12-05T09:29:22;5.10;99.90
41965;DHT22;50120;53.250;8.702;2022-12-05T09:31:50;5.10;99.90
41965;DHT22;50120;53.250;8.702;2022-12-05T09:34:16;5.10;99.90
41965;DHT22;50120;53.250;8.702;2022-12-05T09:36:44;5.10;99.90
41965;DHT22;50120;53.250;8.702;2022-12-05T09:39:10;5.10;99.90
41965;DHT22;50120;53.250;8.702;2022-12-05T09:50:22;5.10;99.90
41965;DHT22;50120;53.250;8.702;2022-12-05T09:53:15;5.10;99.90
41965;DHT22;50120;53.250;8.702;2022-12-05T09:56:27;5.00;99.90
41965;DHT22;50120;53.250;8.702;2022-12-05T09:58:58;5.00;99.90
41965;DHT22;50120;53.250;8.702;2022-12-05T10:01:32;5.00;99.90
41965;DHT22;50120;53.250;8.702;2022-12-05T10:04:47;5.00;99.90
41965;DHT22;50120;53.250;8.702;2022-12-05T10:07:32;5.00;99.90
41965;DHT22;50120;53.250;8.702;2022-12-05T10:13:12;5.00;99.90
41965;DHT22;50120;53.250;8.702;2022-12-05T10:18:45;5.00;99.90
41965;DHT22;50120;53.250;8.702;2022-12-05T10:24:04;4.90;99.90
41965;DHT22;50120;53.250;8.702;2022-12-05T10:26:46;4.90;99.90
41965;DHT22;50120;53.250;8.702;2022-12-05T10:29:25;4.80;99.90
41965;DHT22;50120;53.250;8.702;2022-12-05T10:31:59;4.80;99.90
41965;DHT22;50120;53.250;8.702;2022-12-05T10:34:32;4.80;99.90
41965;DHT22;50120;53.250;8.702;2022-12-05T10:37:14;4.80;99.90
41965;DHT22;50120;53.250;8.702;2022-12-05T10:39:40;4.80;99.90
41965;DHT22;50120;53.250;8.702;2022-12-05T10:42:12;4.70;99.90
41965;DHT22;50120;53.250;8.702;2022-12-05T10:44:39;4.70;99.90
41965;DHT22;50120;53.250;8.702;2022-12-05T10:47:05;4.70;99.90
41965;DHT22;50120;53.250;8.702;2022-12-05T10:49:33;4.70;99.90
41965;DHT22;50120;53.250;8.702;2022-12-05T10:51:58;4.70;99.90
41965;DHT22;50120;53.250;8.702;2022-12-05T10:54:28;4.70;99.90
41965;DHT22;50120;53.250;8.702;2022-12-05T10:56:55;4.70;99.90
41965;DHT22;50120;53.250;8.702;2022-12-05T10:59:41;4.70;99.90
41965;DHT22;50120;53.250;8.702;2022-12-05T11:02:27;4.70;99.90
41965;DHT22;50120;53.250;8.702;2022-12-05T11:04:54;4.60;99.90
41965;DHT22;50120;53.250;8.702;2022-12-05T11:07:28;4.60;99.90
41965;DHT22;50120;53.250;8.702;2022-12-05T11:09:55;4.60;99.90
41965;DHT22;50120;53.250;8.702;2022-12-05T11:12:27;4.60;99.90
41965;DHT22;50120;53.250;8.702;2022-12-05T11:15:03;4.60;99.90
41965;DHT22;50120;53.250;8.702;2022-12-05T11:17:32;4.50;99.90
41965;DHT22;50120;53.250;8.702;2022-12-05T11:19:58;4.40;99.90
41965;DHT22;50120;53.250;8.702;2022-12-05T11:22:33;4.40;99.90
41965;DHT22;50120;53.250;8.702;2022-12-05T11:24:59;4.40;99.90
41965;DHT22;50120;53.250;8.702;2022-12-05T11:27:30;4.30;99.90
41965;DHT22;50120;53.250;8.702;2022-12-05T11:30:03;4.30;99.90
41965;DHT22;50120;53.250;8.702;2022-12-05T11:32:32;4.30;99.90
41965;DHT22;50120;53.250;8.702;2022-12-05T11:37:43;4.30;99.90
41965;DHT22;50120;53.250;8.702;2022-12-05T11:49:34;4.20;99.90
41965;DHT22;50120;53.250;8.702;2022-12-05T11:54:53;4.20;99.90
41965;DHT22;50120;53.250;8.702;2022-12-05T12:00:20;4.20;99.90
41965;DHT22;50120;53.250;8.702;2022-12-05T12:11:41;4.10;99.90
41965;DHT22;50120;53.250;8.702;2022-12-05T12:19:49;4.10;99.90
41965;DHT22;50120;53.250;8.702;2022-12-05T12:40:29;4.00;99.90
41965;DHT22;50120;53.250;8.702;2022-12-05T12:50:58;3.90;99.90
41965;DHT22;50120;53.250;8.702;2022-12-05T12:53:37;3.90;99.90
41965;DHT22;50120;53.250;8.702;2022-12-05T12:56:20;3.90;99.90
41965;DHT22;50120;53.250;8.702;2022-12-05T13:04:16;3.90;99.90
41965;DHT22;50120;53.250;8.702;2022-12-05T13:06:57;3.80;99.90
41965;DHT22;50120;53.250;8.702;2022-12-05T13:09:42;3.90;99.90
41965;DHT22;50120;53.250;8.702;2022-12-05T13:12:15;3.80;99.90
41965;DHT22;50120;53.250;8.702;2022-12-05T13:14:52;3.80;99.90
41965;DHT22;50120;53.250;8.702;2022-12-05T13:17:19;3.80;99.90
41965;DHT22;50120;53.250;8.702;2022-12-05T13:19:51;3.90;99.90
41965;DHT22;50120;53.250;8.702;2022-12-05T13:22:19;3.80;99.90
41965;DHT22;50120;53.250;8.702;2022-12-05T13:24:49;3.80;99.90
41965;DHT22;50120;53.250;8.702;2022-12-05T13:27:17;3.90;99.90
41965;DHT22;50120;53.250;8.702;2022-12-05T13:29:58;3.80;99.90
41965;DHT22;50120;53.250;8.702;2022-12-05T13:32:29;3.80;99.90
41965;DHT22;50120;53.250;8.702;2022-12-05T13:35:20;3.80;99.90
41965;DHT22;50120;53.250;8.702;2022-12-05T13:38:29;3.80;99.90
41965;DHT22;50120;53.250;8.702;2022-12-05T13:41:13;3.70;99.90
41965;DHT22;50120;53.250;8.702;2022-12-05T13:43:59;3.60;99.90
41965;DHT22;50120;53.250;8.702;2022-12-05T13:46:31;3.50;99.90
41965;DHT22;50120;53.250;8.702;2022-12-05T13:49:30;3.40;99.90
41965;DHT22;50120;53.250;8.702;2022-12-05T13:51:53;3.40;99.90
41965;DHT22;50120;53.250;8.702;2022-12-05T13:54:22;3.30;99.90
41965;DHT22;50120;53.250;8.702;2022-12-05T13:56:56;3.30;99.90
41965;DHT22;50120;53.250;8.702;2022-12-05T14:00:03;3.20;99.90
41965;DHT22;50120;53.250;8.702;2022-12-05T14:07:43;3.20;99.90
41965;DHT22;50120;53.250;8.702;2022-12-05T14:13:01;3.20;99.90
41965;DHT22;50120;53.250;8.702;2022-12-05T14:15:34;3.10;99.90
41965;DHT22;50120;53.250;8.702;2022-12-05T14:20:57;3.00;99.90
41965;DHT22;50120;53.250;8.702;2022-12-05T14:26:37;2.90;99.90
41965;DHT22;50120;53.250;8.702;2022-12-05T14:34:26;2.80;99.90
41965;DHT22;50120;53.250;8.702;2022-12-05T14:39:57;2.90;99.90
41965;DHT22;50120;53.250;8.702;2022-12-05T14:45:01;2.90;99.90
41965;DHT22;50120;53.250;8.702;2022-12-05T14:47:31;2.90;99.90
41965;DHT22;50120;53.250;8.702;2022-12-05T14:52:44;2.80;99.90
41965;DHT22;50120;53.250;8.702;2022-12-05T14:55:13;2.80;99.90
41965;DHT22;50120;53.250;8.702;2022-12-05T14:57:47;2.80;99.90
41965;DHT22;50120;53.250;8.702;2022-12-05T15:00:19;2.80;99.90
41965;DHT22;50120;53.250;8.702;2022-12-05T15:02:48;2.70;99.90
41965;DHT22;50120;53.250;8.702;2022-12-05T15:05:25;2.70;99.90
41965;DHT22;50120;53.250;8.702;2022-12-05T15:07:50;2.70;99.90
41965;DHT22;50120;53.250;8.702;2022-12-05T15:13:13;2.60;99.90
41965;DHT22;50120;53.250;8.702;2022-12-05T15:18:41;2.60;99.90
41965;DHT22;50120;53.250;8.702;2022-12-05T15:21:24;2.60;99.90
41965;DHT22;50120;53.250;8.702;2022-12-05T15:23:59;2.50;99.90
41965;DHT22;50120;53.250;8.702;2022-12-05T15:26:25;2.60;99.90
41965;DHT22;50120;53.250;8.702;2022-12-05T15:29:13;2.60;99.90
41965;DHT22;50120;53.250;8.702;2022-12-05T15:31:57;2.50;99.90
41965;DHT22;50120;53.250;8.702;2022-12-05T15:34:38;2.50;99.90
41965;DHT22;50120;53.250;8.702;2022-12-05T15:37:16;2.60;99.90
41965;DHT22;50120;53.250;8.702;2022-12-05T15:39:59;2.60;99.90
41965;DHT22;50120;53.250;8.702;2022-12-05T15:43:17;2.60;99.90
41965;DHT22;50120;53.250;8.702;2022-12-05T15:45:22;2.50;99.90
41965;DHT22;50120;53.250;8.702;2022-12-05T15:47:54;2.50;99.90
41965;DHT22;50120;53.250;8.702;2022-12-05T15:50:41;2.50;99.90
41965;DHT22;50120;53.250;8.702;2022-12-05T15:53:40;2.50;99.90
41965;DHT22;50120;53.250;8.702;2022-12-05T16:03:49;2.50;99.90
41965;DHT22;50120;53.250;8.702;2022-12-05T16:06:24;2.50;99.90
41965;DHT22;50120;53.250;8.702;2022-12-05T16:08:53;2.50;99.90
41965;DHT22;50120;53.250;8.702;2022-12-05T16:11:20;2.40;99.90
41965;DHT22;50120;53.250;8.702;2022-12-05T16:13:53;2.50;99.90
41965;DHT22;50120;53.250;8.702;2022-12-05T16:16:29;2.50;99.90
41965;DHT22;50120;53.250;8.702;2022-12-05T16:18:57;2.50;99.90
41965;DHT22;50120;53.250;8.702;2022-12-05T16:21:31;2.50;99.90
41965;DHT22;50120;53.250;8.702;2022-12-05T16:24:21;2.50;99.90
41965;DHT22;50120;53.250;8.702;2022-12-05T16:27:00;2.50;99.90
41965;DHT22;50120;53.250;8.702;2022-12-05T16:29:32;2.50;99.90
41965;DHT22;50120;53.250;8.702;2022-12-05T16:32:03;2.50;99.90
41965;DHT22;50120;53.250;8.702;2022-12-05T16:34:31;2.50;99.90
41965;DHT22;50120;53.250;8.702;2022-12-05T16:36:58;2.50;99.90
41965;DHT22;50120;53.250;8.702;2022-12-05T16:39:25;2.50;99.90
41965;DHT22;50120;53.250;8.702;2022-12-05T16:41:53;2.50;99.90
41965;DHT22;50120;53.250;8.702;2022-12-05T16:47:24;2.50;99.90
41965;DHT22;50120;53.250;8.702;2022-12-05T16:49:50;2.50;99.90
41965;DHT22;50120;53.250;8.702;2022-12-05T16:52:16;2.40;99.90
41965;DHT22;50120;53.250;8.702;2022-12-05T16:54:44;2.40;99.90
41965;DHT22;50120;53.250;8.702;2022-12-05T16:57:15;2.40;99.90
41965;DHT22;50120;53.250;8.702;2022-12-05T16:59:42;2.40;99.90
41965;DHT22;50120;53.250;8.702;2022-12-05T17:02:14;2.40;99.90
41965;DHT22;50120;53.250;8.702;2022-12-05T17:04:40;2.50;99.90
41965;DHT22;50120;53.250;8.702;2022-12-05T17:07:06;2.50;99.90
41965;DHT22;50120;53.250;8.702;2022-12-05T17:09:31;2.40;99.90
41965;DHT22;50120;53.250;8.702;2022-12-05T17:12:20;2.40;99.90
41965;DHT22;50120;53.250;8.702;2022-12-05T17:14:47;2.40;99.90
41965;DHT22;50120;53.250;8.702;2022-12-05T17:17:13;2.40;99.90
41965;DHT22;50120;53.250;8.702;2022-12-05T17:19:43;2.40;99.90
41965;DHT22;50120;53.250;8.702;2022-12-05T17:22:11;2.40;99.90
41965;DHT22;50120;53.250;8.702;2022-12-05T17:24:37;2.40;99.90
41965;DHT22;50120;53.250;8.702;2022-12-05T17:27:04;2.40;99.90
41965;DHT22;50120;53.250;8.702;2022-12-05T17:29:30;2.40;99.90
41965;DHT22;50120;53.250;8.702;2022-12-05T17:31:56;2.40;99.90
41965;DHT22;50120;53.250;8.702;2022-12-05T17:34:22;2.40;99.90
41965;DHT22;50120;53.250;8.702;2022-12-05T17:36:48;2.40;99.90
41965;DHT22;50120;53.250;8.702;2022-12-05T17:39:13;2.40;99.90
41965;DHT22;50120;53.250;8.702;2022-12-05T17:41:39;2.40;99.90
41965;DHT22;50120;53.250;8.702;2022-12-05T17:44:05;2.50;99.90
41965;DHT22;50120;53.250;8.702;2022-12-05T17:46:31;2.40;99.90
41965;DHT22;50120;53.250;8.702;2022-12-05T17:48:57;2.40;99.90
41965;DHT22;50120;53.250;8.702;2022-12-05T17:51:24;2.40;99.90
41965;DHT22;50120;53.250;8.702;2022-12-05T17:53:50;2.40;99.90
41965;DHT22;50120;53.250;8.702;2022-12-05T17:56:17;2.40;99.90
41965;DHT22;50120;53.250;8.702;2022-12-05T17:58:43;2.40;99.90
41965;DHT22;50120;53.250;8.702;2022-12-05T18:01:15;2.50;99.90
41965;DHT22;50120;53.250;8.702;2022-12-05T18:03:41;2.50;99.90
41965;DHT22;50120;53.250;8.702;2022-12-05T18:06:07;2.50;99.90
41965;DHT22;50120;53.250;8.702;2022-12-05T18:08:33;2.50;99.90
41965;DHT22;50120;53.250;8.702;2022-12-05T18:10:59;2.50;99.90
41965;DHT22;50120;53.250;8.702;2022-12-05T18:13:24;2.50;99.90
41965;DHT22;50120;53.250;8.702;2022-12-05T18:15:55;2.50;99.90
41965;DHT22;50120;53.250;8.702;2022-12-05T18:18:21;2.50;99.90
41965;DHT22;50120;53.250;8.702;2022-12-05T18:20:47;2.50;99.90
41965;DHT22;50120;53.250;8.702;2022-12-05T18:23:12;2.50;99.90
41965;DHT22;50120;53.250;8.702;2022-12-05T18:25:39;2.60;99.90
41965;DHT22;50120;53.250;8.702;2022-12-05T18:28:06;2.60;99.90
41965;DHT22;50120;53.250;8.702;2022-12-05T18:30:32;2.60;99.90
41965;DHT22;50120;53.250;8.702;2022-12-05T18:32:58;2.60;99.90
41965;DHT22;50120;53.250;8.702;2022-12-05T18:35:23;2.60;99.90
41965;DHT22;50120;53.250;8.702;2022-12-05T18:38:10;2.60;99.90
41965;DHT22;50120;53.250;8.702;2022-12-05T18:40:48;2.60;99.90
41965;DHT22;50120;53.250;8.702;2022-12-05T18:43:14;2.60;99.90